Time;durP1;ratioP1;P1;durP2;ratioP2;P2;SDS_P1;SDS_P2;PMS_P1;PMS_P2;Temp;Humidity;BMP_temperature;BMP_pressure;BME280_temperature;BME280_humidity;BME280_pressure;Samples;Min_cycle;Max_cycle;Signal;HPM_P1;HPM_P2
2022/04/14 00:06:52;;;;;;;2.80;2.10;;;18.30;54.20;;;18.73;40.71;98609.63;4937422;28;121380;-92
2022/04/14 00:13:00;;;;;;;2.87;1.90;;;18.20;54.50;;;18.65;40.92;98607.88;4919220;28;125107;-92
2022/04/14 00:20:06;;;;;;;2.47;1.90;;;18.10;54.50;;;18.52;40.99;98607.22;4938896;28;120454;-86
2022/04/14 00:26:14;;;;;;;3.20;2.00;;;18.00;54.80;;;18.43;41.00;98615.88;4938503;28;125207;-89
2022/04/14 00:32:22;;;;;;;2.63;1.97;;;17.90;54.90;;;18.31;41.21;98611.22;4938258;28;120352;-91
2022/04/14 00:34:51;;;;;;;2.90;1.93;;;17.80;55.00;;;18.28;41.26;98617.56;4937436;28;119826;-92
2022/04/14 00:37:39;;;;;;;3.93;2.10;;;17.80;55.10;;;18.27;41.51;98615.13;4933924;28;124779;-91
2022/04/14 00:40:25;;;;;;;2.13;1.80;;;17.80;55.20;;;18.23;41.49;98617.03;4918366;28;124711;-92
2022/04/14 00:46:34;;;;;;;3.47;2.20;;;17.70;55.40;;;18.14;41.56;98620.06;4938636;28;120081;-90
2022/04/14 00:52:45;;;;;;;3.10;1.90;;;17.60;55.60;;;18.06;41.67;98630.28;4938460;28;124773;-92
2022/04/14 00:58:56;;;;;;;2.90;2.10;;;17.50;55.80;;;17.95;42.02;98632.03;4938595;28;119872;-87
2022/04/14 01:09:26;;;;;;;3.27;1.90;;;17.40;56.20;;;17.80;42.23;98635.69;4937805;28;121401;-91
2022/04/14 01:15:35;;;;;;;2.50;2.10;;;17.30;56.40;;;17.75;42.36;98638.72;4937773;28;125132;-92
2022/04/14 01:21:51;;;;;;;3.03;2.17;;;17.20;56.60;;;17.65;42.57;98632.53;4937825;28;120429;-86
2022/04/14 01:28:02;;;;;;;2.13;1.90;;;17.10;56.90;;;17.56;42.75;98647.88;4936914;28;125294;-86
2022/04/14 01:34:10;;;;;;;3.00;1.93;;;17.00;57.20;;;17.49;42.96;98642.09;4937417;28;120374;-93
2022/04/14 01:36:37;;;;;;;3.30;2.10;;;17.00;57.30;;;17.49;43.12;98647.69;4920197;28;118901;-86
2022/04/14 01:46:27;;;;;;;2.57;2.07;;;16.90;57.80;;;17.37;43.52;98657.78;4941308;28;120400;-87
2022/04/14 01:49:15;;;;;;;2.70;2.30;;;16.80;58.30;;;17.35;43.40;98665.72;4924633;28;118728;-86
2022/04/14 01:56:01;;;;;;;1.90;1.70;;;16.80;58.20;;;17.27;43.51;98665.91;4940863;28;124744;-80
2022/04/14 02:02:10;;;;;;;3.30;2.50;;;16.70;58.40;;;17.20;43.89;98672.13;4941641;28;120107;-86
2022/04/14 02:11:15;;;;;;;2.70;2.30;;;16.60;58.80;;;17.13;43.93;98680.31;6042024;23;98427;-91
2022/04/14 02:17:24;;;;;;;3.10;1.97;;;16.60;59.00;;;17.09;44.26;98691.41;5475971;23;125130;-82
2022/04/14 02:23:32;;;;;;;3.40;2.27;;;16.40;59.10;;;17.00;44.01;98699.13;4959714;28;120376;-80
2022/04/14 02:29:41;;;;;;;5.53;2.10;;;16.40;59.30;;;16.93;44.47;98693.34;4960124;28;125168;-84
2022/04/14 02:35:49;;;;;;;2.80;2.60;;;16.40;59.60;;;16.87;44.42;98694.75;4959883;28;120232;-75
2022/04/14 02:41:58;;;;;;;3.93;2.57;;;16.30;59.70;;;16.80;44.55;98691.78;4959505;28;125103;-79
2022/04/14 02:55:31;;;;;;;3.13;2.23;;;16.20;60.30;;;16.69;45.04;98706.22;4959457;28;125159;-78
2022/04/14 03:01:39;;;;;;;3.20;1.90;;;16.10;60.60;;;16.66;45.19;98723.69;4959562;28;120360;-93
2022/04/14 03:07:48;;;;;;;3.63;2.03;;;16.10;60.90;;;16.62;45.35;98706.00;4959513;28;125249;-77
2022/04/14 03:13:56;;;;;;;4.40;2.67;;;16.00;61.20;;;16.57;45.50;98709.84;4959031;28;121282;-77
2022/04/14 03:25:08;;;;;;;2.93;2.43;;;16.00;61.80;;;16.53;45.79;98719.31;5596170;23;97893;-85
2022/04/14 03:31:16;;;;;;;2.70;2.30;;;16.10;62.10;;;16.44;45.69;98716.69;4958709;28;125113;-85
2022/04/14 03:37:25;;;;;;;2.50;2.03;;;16.00;62.20;;;16.38;45.88;98726.44;4959263;28;120408;-87
2022/04/14 03:43:36;;;;;;;2.07;1.83;;;15.80;62.30;;;16.31;45.97;98724.25;4958639;28;125247;-82
2022/04/14 03:49:45;;;;;;;2.13;1.93;;;13.80;60.60;;;16.28;46.11;98724.13;4959215;28;119979;-79
2022/04/14 03:55:53;;;;;;;3.07;2.17;;;15.80;62.80;;;16.23;46.17;98738.34;4958652;28;125130;-77
2022/04/14 04:02:02;;;;;;;3.53;2.17;;;15.70;63.00;;;16.16;46.45;98733.34;4958787;28;120394;-82
2022/04/14 04:08:12;;;;;;;7.67;2.20;;;15.60;63.30;;;16.11;46.49;98731.59;4958227;28;125061;-82
2022/04/14 04:14:21;;;;;;;3.03;2.33;;;15.90;63.80;;;16.08;46.77;98737.88;4957916;28;121290;-82
2022/04/14 04:20:31;;;;;;;2.93;2.47;;;15.50;63.80;;;16.05;46.86;98746.13;4977875;28;125272;-79
2022/04/14 04:30:48;;;;;;;3.43;2.13;;;15.60;64.50;;;15.95;47.19;98744.63;4977930;28;120091;-94
2022/04/14 04:36:56;;;;;;;6.77;2.87;;;18.20;67.50;;;15.92;47.23;98755.66;4958269;28;124764;-90
2022/04/14 04:46:47;;;;;;;3.37;2.67;;;15.20;65.20;;;15.80;47.73;98771.25;4956762;28;125067;-86
2022/04/14 04:49:52;;;;;;;3.40;2.73;;;16.70;68.20;;;15.75;47.64;98767.88;4940787;28;123383;-81
2022/04/14 04:56:01;;;;;;;4.37;3.77;;;15.70;66.30;;;15.68;47.87;98765.63;4957797;28;120120;-88
2022/04/14 05:02:09;;;;;;;5.00;3.07;;;15.10;66.20;;;15.64;47.96;98782.22;4957289;28;124766;-88
2022/04/14 05:08:18;;;;;;;7.53;3.13;;;14.90;66.50;;;15.61;48.49;98791.28;4958294;28;120107;-88
2022/04/14 05:14:33;;;;;;;4.70;3.47;;;15.10;67.10;;;15.64;48.47;98798.94;4957934;28;126314;-82
2022/04/14 05:20:42;;;;;;;5.07;2.90;;;15.10;67.40;;;15.65;48.44;98797.75;4960712;28;120961;-91
2022/04/14 05:30:53;;;;;;;4.23;3.10;;;15.10;67.80;;;15.68;48.54;98804.59;4960463;28;119787;-95
2022/04/14 05:37:01;;;;;;;5.03;3.07;;;15.10;67.80;;;15.69;48.75;98809.06;4960435;28;125095;-85
2022/04/14 05:43:23;;;;;;;3.63;2.80;;;15.20;68.00;;;15.78;48.43;98828.47;4939859;28;120410;-91
2022/04/14 05:46:08;;;;;;;3.77;3.00;;;14.20;67.60;;;15.82;48.46;98818.22;4922898;28;119296;-89
2022/04/14 05:48:39;;;;;;;4.40;3.23;;;15.20;68.10;;;15.85;48.59;98821.16;4933436;28;123983;-92
2022/04/14 05:54:48;;;;;;;4.30;3.10;;;15.30;68.30;;;15.94;48.48;98826.63;4953961;28;120352;-91
2022/04/14 06:01:18;;;;;;;5.57;3.90;;;15.40;68.60;;;16.01;48.51;98826.03;4935383;28;125118;-92
2022/04/14 06:03:45;;;;;;;4.50;3.50;;;15.40;68.60;;;16.06;48.39;98829.38;4905478;28;121595;-91
2022/04/14 06:06:13;;;;;;;5.90;3.43;;;15.40;68.70;;;16.12;48.53;98832.78;4934173;28;118556;-90
2022/04/14 06:09:01;;;;;;;5.03;3.30;;;15.40;68.70;;;16.16;48.21;98830.91;4966521;28;118526;-92
2022/04/14 06:12:24;;;;;;;4.47;3.13;;;15.50;68.80;;;16.21;48.37;98830.69;4968556;28;124829;-91
2022/04/14 06:18:51;;;;;;;5.43;4.30;;;15.60;69.10;;;16.31;48.29;98841.38;4938839;28;121145;-92
2022/04/14 06:21:37;;;;;;;5.60;4.17;;;15.60;69.30;;;16.37;48.40;98841.13;4935734;28;119163;-92
2022/04/14 06:24:04;;;;;;;5.57;4.80;;;15.70;69.40;;;16.43;48.43;98842.50;4948893;28;123316;-92
2022/04/14 06:26:51;;;;;;;9.03;6.00;;;15.70;69.60;;;16.51;48.87;98844.34;4939828;28;122831;-90
2022/04/14 06:29:18;;;;;;;12.57;8.43;;;15.80;70.40;;;16.55;49.30;98846.09;4915065;28;118159;-90
2022/04/14 06:32:05;;;;;;;9.10;8.07;;;15.80;71.00;;;16.61;49.67;98838.28;4931495;28;119623;-92
2022/04/14 06:35:14;;;;;;;14.80;10.90;;;15.90;71.90;;;16.68;49.94;98846.06;4963880;28;123076;-90
2022/04/14 06:37:43;;;;;;;12.87;9.63;;;16.00;72.60;;;16.71;50.46;98848.97;4926980;28;121893;-92
2022/04/14 06:40:29;;;;;;;14.93;11.63;;;16.00;73.20;;;16.74;50.81;98847.47;4935288;28;118978;-90
2022/04/14 06:42:59;;;;;;;17.10;11.53;;;16.10;74.30;;;16.74;51.21;98845.47;4954576;28;119250;-93
2022/04/14 06:45:44;;;;;;;13.30;10.50;;;16.10;74.60;;;16.78;51.16;98845.59;4957322;28;124084;-91
2022/04/14 06:48:11;;;;;;;11.33;8.97;;;16.20;74.80;;;16.86;51.18;98838.25;4941214;28;124540;-92
2022/04/14 06:51:16;;;;;;;11.80;8.90;;;16.20;74.80;;;16.96;51.18;98840.56;4945753;28;119056;-93
2022/04/14 06:54:41;;;;;;;13.90;10.10;;;16.30;75.10;;;17.05;51.26;98846.81;4923515;28;119043;-93
2022/04/14 06:57:27;;;;;;;12.67;9.33;;;16.40;75.70;;;17.10;51.26;98842.94;4936143;28;124229;-93
2022/04/14 07:03:36;;;;;;;11.37;8.97;;;16.50;75.80;;;17.27;51.31;98853.81;4925031;28;119847;-92
2022/04/14 07:06:26;;;;;;;12.30;8.03;;;16.60;76.10;;;17.37;51.28;98846.91;4935372;28;118573;-92
2022/04/14 07:12:35;;;;;;;8.87;7.57;;;16.80;76.50;;;17.57;51.15;98845.88;4860939;29;123977;-93
2022/04/14 07:15:05;;;;;;;10.20;7.70;;;16.90;76.60;;;17.65;50.99;98844.91;4864805;29;119858;-91
2022/04/14 07:18:09;;;;;;;8.80;7.33;;;17.00;76.70;;;17.73;50.94;98859.03;4876509;28;119218;-92
2022/04/14 07:20:54;;;;;;;9.73;7.97;;;17.10;76.60;;;17.81;50.83;98861.72;4871828;28;122970;-92
2022/04/14 07:23:40;;;;;;;13.47;9.63;;;17.10;76.80;;;17.88;50.84;98869.47;4869913;28;123333;-92
2022/04/14 07:26:07;;;;;;;16.67;10.37;;;17.20;77.00;;;17.91;51.14;98856.75;4867943;28;118675;-94
2022/04/14 07:28:34;;;;;;;11.83;9.73;;;17.20;77.20;;;17.93;51.05;98860.00;4872914;28;118594;-92
2022/04/14 07:31:19;;;;;;;13.20;9.87;;;17.30;77.20;;;17.95;51.08;98858.47;4873178;28;123706;-94
2022/04/14 07:33:46;;;;;;;11.90;8.27;;;17.30;77.20;;;17.96;51.12;98857.28;4879550;28;123975;-91
2022/04/14 07:36:19;;;;;;;13.33;9.63;;;17.30;77.10;;;18.01;51.03;98859.81;4875531;28;117282;-92
2022/04/14 07:38:45;;;;;;;9.90;8.43;;;17.40;77.40;;;18.06;50.90;98865.13;4856610;28;119930;-93
2022/04/14 07:41:14;;;;;;;13.50;9.60;;;17.50;77.30;;;18.13;50.97;98863.69;4866372;28;122964;-92
2022/04/14 07:43:40;;;;;;;12.63;9.47;;;17.50;77.20;;;18.20;50.89;98863.88;4870763;28;123773;-93
2022/04/14 07:46:09;;;;;;;9.83;8.00;;;17.50;77.40;;;18.26;50.70;98865.22;4890034;28;119721;-94
2022/04/14 07:48:35;;;;;;;10.50;8.13;;;17.60;77.30;;;18.33;50.61;98871.81;4914476;28;120070;-92
2022/04/14 07:51:03;;;;;;;8.87;7.70;;;17.70;77.40;;;18.40;50.33;98875.94;4914664;28;124219;-91
2022/04/14 07:53:32;;;;;;;9.20;7.20;;;17.70;77.20;;;18.48;50.38;98870.16;4905163;28;123500;-92
2022/04/14 07:56:00;;;;;;;11.33;8.30;;;17.80;77.30;;;18.57;50.33;98885.94;4924713;28;118691;-93
2022/04/14 07:58:26;;;;;;;18.63;9.70;;;17.90;77.40;;;18.62;50.38;98880.03;4918468;28;118214;-91
2022/04/14 08:00:55;;;;;;;17.87;9.30;;;17.90;77.50;;;18.64;50.41;98874.91;4929542;28;123477;-92
2022/04/14 08:03:22;;;;;;;11.07;9.00;;;18.00;77.60;;;18.72;50.40;98877.50;4899953;28;124655;-93
2022/04/14 08:05:49;;;;;;;13.13;9.67;;;18.00;77.60;;;18.76;50.30;98881.22;4900957;28;119430;-92
2022/04/14 08:08:18;;;;;;;10.80;9.00;;;18.10;77.80;;;18.81;50.27;98888.53;4931967;28;120795;-93
2022/04/14 08:10:48;;;;;;;11.50;8.90;;;18.10;77.50;;;18.87;50.33;98881.47;4920116;28;124416;-91
2022/04/14 08:13:18;;;;;;;15.23;9.73;;;18.20;77.60;;;18.91;50.25;98887.97;4911204;28;123263;-92
2022/04/14 08:15:45;;;;;;;11.13;9.07;;;18.20;77.60;;;18.95;50.16;98879.66;4934399;28;119650;-92
2022/04/14 08:18:33;;;;;;;9.90;8.03;;;18.30;77.50;;;18.95;49.79;98886.03;4933561;28;119166;-92
2022/04/14 08:21:00;;;;;;;9.17;7.03;;;18.30;77.30;;;19.02;49.87;98887.38;4936066;28;124148;-92
2022/04/14 08:23:27;;;;;;;11.57;8.70;;;18.40;77.30;;;19.09;49.85;98893.13;4930337;28;124422;-91
2022/04/14 08:25:53;;;;;;;18.90;8.30;;;18.40;77.30;;;19.13;49.74;98892.03;4908963;28;119814;-92
2022/04/14 08:28:24;;;;;;;11.73;9.60;;;18.50;77.40;;;19.18;49.76;98888.97;4926491;28;119476;-93
2022/04/14 08:30:54;;;;;;;15.23;10.90;;;18.50;77.30;;;19.19;49.77;98896.16;4922126;28;123614;-93
2022/04/14 08:33:23;;;;;;;14.83;10.77;;;18.50;77.30;;;19.17;49.88;98889.31;4926839;28;123180;-92
2022/04/14 08:35:52;;;;;;;12.90;10.10;;;18.60;77.60;;;19.18;49.83;98888.97;4921488;28;118483;-92
2022/04/14 08:38:19;;;;;;;11.47;9.37;;;18.60;77.60;;;19.21;50.09;98876.22;4920534;28;119305;-93
2022/04/14 08:40:48;;;;;;;12.73;8.13;;;18.60;77.50;;;19.25;49.89;98888.28;4898062;28;123270;-94
2022/04/14 08:43:18;;;;;;;13.63;8.93;;;18.60;77.40;;;19.33;49.55;98892.84;4901199;28;122948;-93
2022/04/14 08:45:48;;;;;;;9.10;6.97;;;18.70;77.50;;;19.38;49.65;98886.97;4908110;28;119287;-94
2022/04/14 08:48:18;;;;;;;8.30;7.07;;;18.70;77.30;;;19.42;49.47;98887.00;4916942;28;117398;-93
2022/04/14 08:50:46;;;;;;;9.20;7.53;;;18.80;77.20;;;19.46;49.11;98875.91;4912772;28;124527;-91
2022/04/14 08:53:14;;;;;;;8.23;6.77;;;18.80;77.00;;;19.49;49.34;98875.97;4912611;28;124177;-93
2022/04/14 08:55:42;;;;;;;11.13;7.77;;;18.80;76.80;;;19.51;49.13;98879.22;4902537;28;119196;-91
2022/04/14 08:58:15;;;;;;;10.83;8.90;;;18.90;76.90;;;19.54;49.15;98883.25;4915974;28;120776;-91
2022/04/14 09:00:42;;;;;;;11.17;9.47;;;18.90;76.80;;;19.55;49.24;98882.06;4918754;28;125273;-92
2022/04/14 09:03:09;;;;;;;10.43;8.60;;;18.90;76.80;;;19.58;49.20;98889.72;4920999;28;122019;-92
2022/04/14 09:05:37;;;;;;;9.70;7.47;;;18.90;76.80;;;19.63;48.98;98883.84;4904620;28;119504;-92
2022/04/14 09:08:05;;;;;;;10.93;8.67;;;19.00;76.80;;;;;;4898302;28;118983;-90
2022/04/14 09:10:31;;;;;;;15.90;7.60;;;19.00;76.50;;;19.65;48.69;98889.88;4900616;28;122671;-91
2022/04/14 09:12:58;;;;;;;12.37;9.30;;;19.00;76.40;;;19.66;48.92;98883.13;4911402;28;123808;-91
2022/04/14 09:15:27;;;;;;;10.80;8.70;;;19.10;76.50;;;19.67;48.85;98889.56;4914819;28;119556;-91
2022/04/14 09:17:55;;;;;;;10.60;7.70;;;19.10;76.30;;;19.68;48.73;98889.16;4918685;28;119063;-91
2022/04/14 09:20:31;;;;;;;14.53;9.00;;;19.10;76.20;;;19.69;48.63;98885.16;4910873;28;123330;-91
2022/04/14 09:23:21;;;;;;;9.40;7.80;;;19.10;76.10;;;19.71;48.79;98888.41;4881386;28;123260;-91
2022/04/14 09:26:06;;;;;;;11.80;7.40;;;19.10;76.20;;;19.72;48.45;98887.25;4919549;28;119664;-91
2022/04/14 09:28:33;;;;;;;14.00;9.27;;;19.10;76.20;;;19.73;48.46;98888.06;4919403;28;119110;-91
2022/04/14 09:31:07;;;;;;;12.60;8.67;;;19.10;76.20;;;19.76;48.87;98892.91;4885554;28;122201;-90
2022/04/14 09:33:44;;;;;;;17.90;9.70;;;19.20;76.30;;;19.78;48.51;98896.97;4898931;28;123938;-91
2022/04/14 09:36:17;;;;;;;14.43;9.50;;;19.20;76.20;;;19.80;48.49;98900.22;4899239;28;119755;-90
2022/04/14 09:38:50;;;;;;;11.00;8.60;;;19.20;76.00;;;19.82;48.26;98909.06;4912910;28;118341;-91
2022/04/14 09:41:32;;;;;;;9.33;7.73;;;19.30;75.80;;;19.82;48.24;98902.63;4915871;28;124015;-90
2022/04/14 09:44:06;;;;;;;8.63;6.53;;;19.30;75.70;;;19.84;48.17;98901.09;4903690;28;123116;-92
2022/04/14 09:46:33;;;;;;;9.07;6.80;;;19.30;75.60;;;19.88;47.89;98891.94;4899971;28;120173;-92
2022/04/14 09:49:09;;;;;;;9.70;7.07;;;19.30;75.30;;;19.91;47.67;98889.22;4886201;28;119333;-93
2022/04/14 09:51:47;;;;;;;12.30;9.13;;;19.40;75.20;;;19.95;47.60;98903.28;4913119;28;124086;-92
2022/04/14 09:54:17;;;;;;;9.40;7.67;;;19.40;75.10;;;19.99;47.88;98892.97;4895213;28;124040;-95
2022/04/14 09:56:57;;;;;;;18.60;12.70;;;21.00;76.80;;;20.01;48.40;98880.16;4920372;28;119997;-92
2022/04/14 09:59:28;;;;;;;14.40;10.33;;;19.50;76.10;;;20.05;48.41;98885.84;4915193;28;119299;-92
2022/04/14 10:02:18;;;;;;;16.60;10.53;;;19.50;76.00;;;20.10;48.57;98870.72;4902949;28;124021;-91
2022/04/14 10:04:48;;;;;;;20.57;12.10;;;19.50;76.10;;;20.13;48.38;98870.75;4903989;28;123910;-94
2022/04/14 10:07:20;;;;;;;14.93;11.27;;;19.60;76.50;;;20.18;48.69;98876.06;4901399;28;119746;-90
2022/04/14 10:09:50;;;;;;;15.10;11.57;;;19.60;76.60;;;20.22;48.37;98867.69;4886022;28;118059;-94
2022/04/14 10:12:20;;;;;;;15.90;10.07;;;19.60;76.40;;;20.25;48.40;98873.34;4929217;28;124093;-94
2022/04/14 10:15:07;;;;;;;24.30;13.20;;;19.60;76.50;;;20.29;48.47;98867.81;4903961;28;121701;-94
2022/04/14 10:17:38;;;;;;;17.23;11.20;;;19.70;76.70;;;20.33;48.38;98873.47;4904012;28;118245;-92
2022/04/14 10:20:08;;;;;;;13.80;9.93;;;19.70;76.60;;;20.39;48.25;98866.34;4900409;28;118886;-94
2022/04/14 10:22:36;;;;;;;12.70;10.30;;;19.80;76.50;;;20.45;48.26;98874.09;4927037;28;123020;-92
2022/04/14 10:25:04;;;;;;;12.33;8.80;;;19.80;76.30;;;20.51;48.15;98868.97;4911905;28;124248;-92
2022/04/14 10:27:33;;;;;;;11.43;8.10;;;19.90;76.30;;;20.58;48.02;98862.66;4911260;28;118850;-92
2022/04/14 10:30:00;;;;;;;14.77;10.57;;;20.00;76.00;;;20.63;47.74;98865.97;4908515;28;119156;-91
2022/04/14 10:32:27;;;;;;;15.03;10.60;;;20.00;75.80;;;20.67;47.32;98872.44;4919595;28;123429;-92
2022/04/14 10:34:57;;;;;;;10.63;8.43;;;20.10;75.60;;;20.71;47.14;98873.31;4927409;28;123846;-91
2022/04/14 10:37:33;;;;;;;10.30;7.60;;;20.10;75.30;;;20.77;47.42;98876.59;4905648;28;118386;-91
2022/04/14 10:40:00;;;;;;;9.73;7.83;;;20.20;75.20;;;20.83;47.23;98879.91;4886700;28;118943;-90
2022/04/14 10:42:29;;;;;;;19.63;12.27;;;20.20;75.10;;;20.87;47.34;98869.50;4928248;28;124024;-92
2022/04/14 10:44:56;;;;;;;11.37;8.57;;;20.30;75.30;;;20.92;46.96;98866.38;4896592;28;122640;-92
2022/04/14 10:47:54;;;;;;;16.00;11.17;;;20.30;75.00;;;20.97;46.62;98863.22;4908906;28;119323;-93
2022/04/14 10:50:26;;;;;;;14.37;8.93;;;20.40;74.50;;;21.02;46.67;98860.09;4915070;28;118695;-93
2022/04/14 10:53:13;;;;;;;10.37;9.20;;;20.40;74.30;;;21.08;46.60;98857.75;4925640;28;124017;-91
2022/04/14 10:55:48;;;;;;;12.80;9.13;;;20.50;74.20;;;21.11;46.44;98857.00;4913520;28;124160;-92
2022/04/14 10:58:36;;;;;;;10.37;7.90;;;20.50;74.00;;;21.16;46.05;98860.28;4910195;28;119617;-93
2022/04/14 11:01:04;;;;;;;10.17;8.07;;;20.60;73.90;;;21.22;46.34;98855.13;4917987;28;118915;-92
2022/04/14 11:03:52;;;;;;;12.83;8.63;;;20.60;73.50;;;21.28;45.76;98862.03;4896824;28;122824;-91
2022/04/14 11:06:51;;;;;;;8.97;7.70;;;20.70;73.20;;;21.34;45.40;98863.31;4925221;28;123864;-93
2022/04/14 11:09:45;;;;;;;11.10;8.60;;;20.80;72.90;;;21.38;44.93;98869.00;4891959;28;119534;-91
2022/04/14 11:12:18;;;;;;;13.27;8.80;;;20.80;71.90;;;21.41;45.07;98871.03;4910750;28;119163;-92
2022/04/14 11:14:59;;;;;;;12.53;9.30;;;20.80;71.80;;;21.43;44.69;98868.66;4922632;28;124376;-92
2022/04/14 11:17:53;;;;;;;10.47;8.70;;;20.90;71.60;;;21.49;44.61;98877.56;4911108;28;121839;-93
2022/04/14 11:20:37;;;;;;;14.97;9.57;;;21.00;71.50;;;21.56;44.07;98878.44;4929086;28;119415;-94
2022/04/14 11:23:27;;;;;;;9.47;7.23;;;21.00;70.90;;;21.63;44.27;98883.34;4909954;28;119031;-92
2022/04/14 11:26:04;;;;;;;10.87;7.83;;;22.30;71.90;;;21.71;43.89;98868.19;4915397;28;124068;-91
2022/04/14 11:28:36;;;;;;;12.53;7.67;;;21.10;70.70;;;21.77;43.93;98872.25;4920495;28;123755;-91
2022/04/14 11:31:05;;;;;;;10.53;6.77;;;21.20;70.50;;;21.84;43.90;98865.88;4918866;28;119739;-93
2022/04/14 11:33:39;;;;;;;11.40;7.40;;;21.30;70.30;;;21.90;43.33;98861.53;4922388;28;120070;-96
2022/04/14 11:36:09;;;;;;;9.50;6.43;;;21.30;69.80;;;21.98;43.26;98871.66;4899138;28;124644;-91
2022/04/14 11:39:08;;;;;;;15.57;7.30;;;21.40;70.00;;;22.04;43.63;98881.38;4921880;28;122989;-95
2022/04/14 11:42:08;;;;;;;19.33;11.90;;;21.50;70.00;;;22.13;43.80;98883.03;4928553;28;118671;-93
2022/04/14 11:44:35;;;;;;;12.73;9.80;;;21.50;70.10;;;22.16;43.32;98865.38;4919842;28;118477;-92
2022/04/14 11:47:07;;;;;;;11.60;8.73;;;21.60;70.10;;;22.19;43.54;98864.63;4930258;28;124090;-93
2022/04/14 11:49:35;;;;;;;13.60;8.90;;;21.60;70.00;;;22.21;43.29;98863.03;4920287;28;122970;-93
2022/04/14 11:52:04;;;;;;;10.90;7.47;;;21.70;70.00;;;22.27;43.33;98861.50;4927730;28;119509;-93
2022/04/14 11:54:37;;;;;;;7.40;6.70;;;21.70;69.90;;;22.38;43.38;98858.78;4907231;28;118419;-93
2022/04/14 11:57:26;;;;;;;11.40;8.37;;;21.80;70.10;;;22.50;43.23;98863.28;4923078;28;124107;-94
2022/04/14 11:59:56;;;;;;;12.40;8.17;;;21.90;69.60;;;22.57;42.70;98859.69;4926166;28;123843;-94
2022/04/14 12:02:24;;;;;;;12.23;7.80;;;22.00;69.40;;;22.61;42.92;98864.16;4905223;28;119451;-92
2022/04/14 12:04:56;;;;;;;9.20;8.00;;;22.00;69.20;;;22.69;43.11;98863.00;4945421;28;119058;-95
2022/04/14 12:07:32;;;;;;;13.83;8.77;;;22.10;69.10;;;22.81;42.57;98867.53;4929733;28;124389;-93
2022/04/14 12:10:08;;;;;;;11.67;7.63;;;22.20;69.20;;;22.90;42.53;98859.50;4928142;28;122971;-93
2022/04/14 12:12:40;;;;;;;8.33;7.20;;;22.30;68.90;;;22.99;42.12;98864.00;4925921;28;119873;-92
2022/04/14 12:15:07;;;;;;;13.03;8.17;;;22.40;68.70;;;23.02;42.32;98852.75;4920251;28;119074;-92
2022/04/14 12:17:36;;;;;;;9.40;7.50;;;22.40;68.30;;;23.11;42.23;98855.22;4911508;28;125093;-92
2022/04/14 12:20:05;;;;;;;12.93;8.30;;;22.50;68.40;;;23.22;42.30;98853.25;4928835;28;124492;-90
2022/04/14 12:22:34;;;;;;;10.20;8.07;;;22.60;68.40;;;23.31;42.05;98850.06;4910865;28;120170;-94
2022/04/14 12:25:05;;;;;;;10.17;8.10;;;22.70;68.40;;;23.38;41.90;98855.75;4928680;28;120104;-94
2022/04/14 12:27:38;;;;;;;12.57;7.50;;;22.80;68.20;;;23.46;41.74;98856.59;4905521;28;123831;-93
2022/04/14 12:30:11;;;;;;;17.17;9.53;;;22.80;67.80;;;23.48;41.67;98865.44;4918362;28;123577;-91
2022/04/14 12:32:38;;;;;;;12.97;8.83;;;22.90;67.70;;;23.51;41.64;98844.91;4921938;28;119388;-92
2022/04/14 12:35:10;;;;;;;11.70;8.20;;;22.90;67.50;;;23.55;41.65;98851.34;4918186;28;119658;-93
2022/04/14 12:37:40;;;;;;;9.23;7.60;;;23.00;67.40;;;23.65;41.44;98852.59;4911630;28;123583;-92
2022/04/14 12:40:21;;;;;;;8.43;7.20;;;23.10;67.50;;;23.78;41.34;98837.75;4914479;28;123882;-93
2022/04/14 12:42:48;;;;;;;8.50;6.30;;;23.20;67.50;;;23.90;41.36;98842.19;4924659;28;118571;-94
2022/04/14 12:45:17;;;;;;;9.33;6.70;;;23.30;67.40;;;24.03;41.07;98836.97;4908791;28;119426;-94
2022/04/14 12:47:48;;;;;;;10.53;7.33;;;23.40;67.20;;;24.09;40.76;98843.00;4915483;28;124465;-92
2022/04/14 12:50:20;;;;;;;9.60;7.80;;;23.50;66.80;;;24.09;40.78;98840.19;4924922;28;122849;-94
2022/04/14 12:52:58;;;;;;;17.97;8.97;;;23.50;66.40;;;24.10;40.62;98839.81;4869606;28;119221;-94
2022/04/14 12:55:28;;;;;;;11.77;7.30;;;23.60;66.00;;;24.13;40.68;98849.47;4908679;28;118966;-94
2022/04/14 12:58:12;;;;;;;14.33;10.47;;;23.60;65.90;;;24.16;40.43;98837.38;4929501;28;122692;-96
2022/04/14 13:00:39;;;;;;;11.77;8.77;;;23.60;65.50;;;24.20;40.34;98824.84;4917387;28;122679;-93
2022/04/14 13:03:14;;;;;;;16.53;8.60;;;23.60;65.50;;;24.33;40.17;98832.94;4909230;28;117537;-93
2022/04/14 13:05:44;;;;;;;14.37;10.27;;;23.70;65.60;;;24.45;40.00;98815.63;4907015;28;118224;-95
2022/04/14 13:08:12;;;;;;;12.43;8.37;;;23.90;65.20;;;24.51;39.88;98830.94;4926962;28;124203;-95
2022/04/14 13:10:41;;;;;;;10.33;8.73;;;23.90;65.00;;;24.56;39.97;98827.69;4910022;28;121731;-93
2022/04/14 13:13:28;;;;;;;8.23;7.00;;;24.00;65.00;;;24.56;39.84;98822.03;4926800;28;120448;-95
2022/04/14 13:15:55;;;;;;;10.03;7.10;;;24.00;64.80;;;24.62;39.91;98823.22;4903394;28;120144;-94
2022/04/14 13:18:21;;;;;;;11.50;7.63;;;24.10;64.90;;;24.74;39.96;98818.38;4913931;28;124129;-94
2022/04/14 13:20:48;;;;;;;8.60;7.20;;;24.20;65.00;;;24.82;39.60;98822.78;4926412;28;123789;-92
2022/04/14 13:23:18;;;;;;;12.47;8.30;;;24.20;64.80;;;24.89;39.35;98831.25;4925792;28;119279;-94
2022/04/14 13:25:48;;;;;;;10.63;7.93;;;24.30;64.60;;;24.96;39.30;98830.41;4917824;28;118238;-94
2022/04/14 13:28:15;;;;;;;10.63;8.57;;;24.40;64.60;;;25.04;38.92;98832.81;4925577;28;124023;-93
2022/04/14 13:30:42;;;;;;;7.23;5.70;;;24.50;64.20;;;25.11;39.51;98837.63;4914281;28;123004;-95
2022/04/14 13:33:09;;;;;;;6.90;6.20;;;24.50;64.20;;;25.20;39.10;98840.03;4934117;28;119241;-95
2022/04/14 13:35:36;;;;;;;10.30;8.20;;;24.60;64.10;;;25.26;38.89;98838.44;4896368;28;119114;-94
2022/04/14 13:38:04;;;;;;;7.03;6.23;;;24.70;63.80;;;25.31;38.58;98838.00;4924258;28;124180;-94
2022/04/14 13:40:31;;;;;;;11.30;7.10;;;24.80;63.70;;;25.34;38.93;98846.47;4925166;28;123837;-95
2022/04/14 13:42:57;;;;;;;10.47;8.20;;;24.80;63.50;;;25.33;38.79;98846.84;4907508;28;118634;-94
2022/04/14 13:45:24;;;;;;;9.77;8.30;;;24.90;63.10;;;25.30;38.49;98853.34;4930421;28;118482;-96
2022/04/14 13:47:50;;;;;;;12.20;8.17;;;24.80;62.90;;;25.29;38.78;98851.75;4925328;28;123221;-94
2022/04/14 13:50:17;;;;;;;11.40;8.20;;;24.80;62.80;;;25.27;38.55;98848.50;4924081;28;123864;-91
2022/04/14 13:52:44;;;;;;;9.93;6.43;;;24.80;63.30;;;25.28;38.69;98835.97;4912981;28;119352;-93
2022/04/14 13:55:11;;;;;;;10.53;6.77;;;24.80;62.80;;;25.35;38.37;98845.22;4911778;28;119032;-94
2022/04/14 13:57:39;;;;;;;10.37;9.27;;;24.90;62.80;;;25.43;38.27;98860.16;4907503;28;124172;-92
2022/04/14 14:00:08;;;;;;;11.53;9.40;;;24.90;62.40;;;25.38;38.04;98837.16;4924624;28;123240;-92
2022/04/14 14:02:37;;;;;;;10.30;7.00;;;24.90;61.90;;;25.35;38.09;98836.75;4907868;28;119269;-95
2022/04/14 14:05:07;;;;;;;10.90;7.30;;;24.90;62.00;;;25.37;38.04;98839.19;4908986;28;119393;-94
2022/04/14 14:07:33;;;;;;;9.93;7.17;;;24.90;61.80;;;25.45;38.20;98837.91;4931050;28;124124;-93
2022/04/14 14:09:59;;;;;;;9.20;5.50;;;25.00;62.00;;;25.50;37.96;98823.34;4914554;28;123651;-95
2022/04/14 14:12:26;;;;;;;10.73;8.33;;;25.00;61.70;;;25.57;37.75;98839.47;4930268;28;119062;-91
2022/04/14 14:14:55;;;;;;;9.67;5.77;;;25.10;61.40;;;25.64;38.03;98842.25;4926905;28;118596;-95
2022/04/14 14:17:21;;;;;;;6.07;4.77;;;25.10;61.50;;;25.75;37.58;98825.22;4903377;28;123982;-93
2022/04/14 14:19:48;;;;;;;8.23;6.60;;;25.20;61.50;;;25.89;37.31;98835.66;4917524;28;123963;-93
2022/04/14 14:22:14;;;;;;;8.47;6.13;;;25.30;61.10;;;25.92;37.40;98824.31;4935275;28;119486;-94